Nearby METAR Reports

 

KLOM - Philly Wings F, Pennsylvania, USA
Distance from station: SW 6mi, 10km
Updated: Tue, 29-Jul-2014 2:15am EDT
Clear
Clear
 Wind from calm
Wind: Calm
Temperature: 63°F , 17°C
Dew Point: 59°F , 15°C
Humidity: 88%
Barometer: 29.79 inHg , 1008.8 hPa
Clouds: Clear
Visibility: 10 miles , 16 km
2014/07/29 06:15 KLOM 290615Z AUTO 00000KT 10SM CLR 17/15 A2979 RMK AO1
KDYL - Doylestown, Pennsylvania, USA
Distance from station: NNE 10mi, 17km
Updated: Tue, 29-Jul-2014 1:54am EDT
Clear
Clear
 Wind from NW
Wind: NW 5 mph , 7 km/h
Temperature: 63°F , 17°C
Dew Point: 55°F , 13°C
Humidity: 77%
Barometer: 29.79 inHg , 1008.8 hPa
Clouds: Clear
Visibility: 10 miles , 16 km
2014/07/29 05:54 KDYL 290554Z AUTO 32004KT 10SM CLR 17/13 A2979 RMK AO2 SLP081 6//// T01670128 10200 20167 $
KPNE - Philadelphia/Ne, Pennsylvania, USA
Distance from station: SE 11mi, 18km
Updated: Tue, 29-Jul-2014 1:54am EDT
Clear
Clear
 Wind from NW
Wind: NW 6 mph , 9 km/h
Temperature: 66°F , 19°C
Dew Point: 54°F , 12°C
Humidity: 64%
Barometer: 29.80 inHg , 1009.1 hPa
Clouds: Clear
Visibility: 10 miles , 16 km
2014/07/29 05:54 KPNE 290554Z AUTO 31005KT 10SM CLR 19/12 A2980 RMK AO2 SLP089 T01940122 10239 20194 53011 TSNO
 
KPTW - Pottstown, Pennsylvania, USA
Distance from station: W 20mi, 32km
Updated: Tue, 29-Jul-2014 1:54am EDT
Clear
Clear
 Wind from WNW
Wind: WNW 3 mph , 6 km/h
Temperature: 63°F , 17°C
Dew Point: 55°F , 13°C
Humidity: 77%
Barometer: 29.81 inHg , 1009.5 hPa
Clouds: Clear
Visibility: 10 miles , 16 km
2014/07/29 05:54 KPTW 290554Z AUTO 29003KT 10SM CLR 17/13 A2981 RMK AO2 SLP092 T01670128 10206 20167 53008
KTTN - Trenton, New Jersey, USA
Distance from station: ENE 20mi, 32km
Updated: Tue, 29-Jul-2014 1:53am EDT
Clear
Clear
 
Temperature: 64°F , 18°C
Dew Point: 54°F , 12°C
Humidity: 68%
Barometer: 29.77 inHg , 1008.1 hPa
Clouds: Clear
Visibility: 10 miles , 16 km
2014/07/29 05:53 KTTN 290553Z AUTO 10SM CLR 18/12 A2977 RMK AO2 SLP075 T01830122 10228 20183 53012
KUKT - Quakertown Arp, Pennsylvania, USA
Distance from station: NNW 20mi, 32km
Updated: Tue, 29-Jul-2014 2:10am EDT
Clear
Clear
 Wind from NNW
Wind: NNW 5 mph , 7 km/h
Temperature: 59°F , 15°C
Dew Point: 55°F , 13°C
Humidity: 88%
Barometer: 29.81 inHg , 1009.5 hPa
Clouds: Clear
Visibility: 10 miles , 16 km
2014/07/29 06:10 KUKT 290610Z AUTO 33004KT 10SM CLR 15/13 A2981 RMK AO1
 
KPHL - Philadelphia, Pennsylvania, USA
Distance from station: S 22mi, 36km
Updated: Tue, 29-Jul-2014 1:54am EDT
Clear
Clear
 Wind from NW
Wind: NW 7 mph , 11 km/h
Temperature: 68°F , 20°C
Dew Point: 55°F , 13°C
Humidity: 64%
Barometer: 29.80 inHg , 1009.1 hPa
Clouds: Clear
Visibility: 10 miles , 16 km
2014/07/29 05:54 KPHL 290554Z 32006KT 10SM CLR 20/13 A2980 RMK AO2 SLP090 60000 T02000128 10256 20200 53012 $
KVAY - Mount Holly, New Jersey, USA
Distance from station: SE 25mi, 41km
Updated: Tue, 29-Jul-2014 1:54am EDT
Clear
Clear
 Wind from NW
Wind: NW 8 mph , 13 km/h
Temperature: 66°F , 19°C
Dew Point: 57°F , 14°C
Humidity: 73%
Barometer: 29.78 inHg , 1008.5 hPa
Clouds: Clear
Visibility: 10 miles , 16 km
2014/07/29 05:54 KVAY 290554Z AUTO 31007KT 10SM CLR 19/14 A2978 RMK AO2 SLP084 T01890139 10250 20189 53013
KXLL - Allentown Queen, Pennsylvania, USA
Distance from station: NNW 31mi, 49km
Updated: Tue, 29-Jul-2014 2:15am EDT
Overcast
Overcast
 Wind from calm
Wind: Calm
Temperature: 63°F , 17°C
Dew Point: 54°F , 12°C
Humidity: 73%
Barometer: 29.82 inHg , 1009.8 hPa
Clouds: Overcast
Visibility: 10 miles , 16 km
Cloud details: Overcast 2900 ft
2014/07/29 06:15 KXLL 290615Z AUTO 00000KT 10SM OVC029 17/12 A2982 RMK AO2
 
KWRI - Wrightst/Mcguire, New Jersey, USA
Distance from station: ESE 34mi, 54km
Updated: Tue, 29-Jul-2014 1:58am EDT
Clear
Clear
 Wind from NW
Wind: NW 8 mph , 13 km/h
Temperature: 64°F , 18°C
Dew Point: 55°F , 13°C
Humidity: 73%
Barometer: 29.76 inHg , 1007.8 hPa
Clouds: Clear
Visibility: 10 miles , 16 km
2014/07/29 05:58 KWRI 290558Z AUTO 32007KT 10SM CLR 18/13 A2976 RMK AO2 SLP080 T01820133 10251 20182 53012
KABE - Allentown, Pennsylvania, USA
Distance from station: NNW 35mi, 56km
Updated: Tue, 29-Jul-2014 1:51am EDT
Clear
Clear
 Wind from WNW
Wind: WNW 6 mph , 9 km/h
Temperature: 63°F , 17°C
Dew Point: 54°F , 12°C
Humidity: 73%
Barometer: 29.80 inHg , 1009.1 hPa
Clouds: Clear
Visibility: 10 miles , 16 km
2014/07/29 05:51 KABE 290551Z 30005KT 10SM CLR 17/12 A2980 RMK AO2 SLP087 T01720122 10206 20167 53011
KMQS - Coatesville, Pennsylvania, USA
Distance from station: WSW 39mi, 63km
Updated: Tue, 29-Jul-2014 2:15am EDT
Clear
Clear
 Wind from NW
Wind: NW 10 mph , 17 km/h
Temperature: 61°F , 16°C
Dew Point: 61°F , 16°C
Humidity: 100%
Barometer: 29.82 inHg , 1009.8 hPa
Clouds: Clear
Visibility: 10 miles , 16 km
2014/07/29 06:15 KMQS 290615Z AUTO 31009KT 10SM CLR 16/16 A2982 RMK AO2
 
KSMQ - Somerville, New Jersey, USA
Distance from station: NE 40mi, 64km
Updated: Tue, 29-Jul-2014 1:53am EDT
Mostly cloudy
Mostly cloudy
 Wind from varies
Wind: varies 6 mph , 9 km/h
Temperature: 64°F , 18°C
Dew Point: 55°F , 13°C
Humidity: 73%
Barometer: 29.76 inHg , 1007.8 hPa
Clouds: Mostly cloudy
Visibility: 10 miles , 16 km
Cloud details: Mostly cloudy 3300 ft
2014/07/29 05:53 KSMQ 290553Z AUTO VRB05KT 10SM BKN033 18/13 A2976 RMK AO2 SLP076 T01780128 10222 20178 53014
KILG - Wilmington, Delaware, USA
Distance from station: SSW 42mi, 68km
Updated: Tue, 29-Jul-2014 1:51am EDT
Clear
Clear
 Wind from WNW
Wind: WNW 5 mph , 7 km/h
Temperature: 64°F , 18°C
Dew Point: 59°F , 15°C
Humidity: 83%
Barometer: 29.82 inHg , 1009.8 hPa
Clouds: Clear
Visibility: 10 miles , 16 km
2014/07/29 05:51 KILG 290551Z 30004KT 10SM CLR 18/15 A2982 RMK AO2 SLP096 60000 T01830150 10239 20178 53011
KRDG - Reading, Pennsylvania, USA
Distance from station: WNW 43mi, 70km
Updated: Tue, 29-Jul-2014 1:54am EDT
Few Clouds
Few Clouds
 Wind from WNW
Wind: WNW 9 mph , 15 km/h
Temperature: 63°F , 17°C
Dew Point: 55°F , 13°C
Humidity: 77%
Barometer: 29.80 inHg , 1009.1 hPa
Clouds: Few Clouds
Visibility: 10 miles , 16 km
Cloud details: Few Clouds 3200 ft
2014/07/29 05:54 KRDG 290554Z 30008KT 10SM FEW032 17/13 A2980 RMK AO2 SLP093 T01720128 10206 20172 51003
 
KNEL - Lakehurst Nas, New Jersey, USA
Distance from station: ESE 46mi, 74km
Updated: Thu, 17-Jul-2014 3:00pm EDT
NOT Current
Mostly cloudy
Mostly cloudy
 Wind from WNW
Wind: WNW 6 mph , 9 km/h
Temperature: 81°F , 27°C
Heat Index: 81°F , 27°C
Dew Point: 55°F , 13°C
Humidity: 42%
Barometer: 29.99 inHg , 1015.6 hPa
Clouds: Mostly cloudy
Cloud details: Partly cloudy 5500 ft
Partly cloudy 8000 ft
Mostly cloudy 10000 ft
2014/07/17 19:00 KNEL 171900Z AUTO 30005KT SCT055 SCT080 BKN100 27/13 A2999 RMK AO2 SLP153 T02720128 $
KMJX - Toms River, New Jersey, USA
Distance from station: ESE 50mi, 80km
Updated: Tue, 29-Jul-2014 2:15am EDT
Clear
Clear
 Wind from NNW
Wind: NNW 6 mph , 9 km/h
Temperature: 64°F , 18°C
Dew Point: 55°F , 13°C
Humidity: 73%
Barometer: 29.77 inHg , 1008.1 hPa
Clouds: Clear
Visibility: 10 miles , 16 km
2014/07/29 06:15 KMJX 290615Z AUTO 33005KT 10SM CLR 18/13 A2977 RMK AO1